Lake Crest, Illinois
Current Conditions -  °F | °C
As of 8:53 AM on Saturday 20 Dec 2014 (Local Time) from KMWA Reporting Station
Overcast Overcast  
Wind Chill: 30°   Ceiling: 4800
Heat Index: 36°   Visibility: 7mi
Dew Point: 30°   Wind: 7mph
Humidity: 81%   Direction: 160°SSE
Pressure: 30.31"   Gusts: NA
Location:  37.6398°N, 88.8751°W
Report Text: KMWA 201453Z 16006KT 7SM OVC048 02/M01 A3031
Loading
Personal Weather Stations






























Interactive Weather Map New forecast layout! Learn more

10-Day Weather Forecast

Advertisements
Track Severe Weather on mobile